Terminal Aerodrome Forecast
Issued by NWS

Home | Current Version | Previous Version | Text Only | Print | Product List | Glossary On
Versions: 1 2 3 4 5 6 7 8 9 10 11 12 13 14 15 16 17
000
FTUS45 KRIW 251720
TAFCPR
TAF
KCPR 251720Z 2518/2618 36015G25KT 5SM -SNRA SCT015 BKN035 OVC050
      TEMPO 2518/2520 3SM -SN BR BKN025
     FM252000 02011G19KT 6SM -RASN SCT014 BKN025
     FM260100 36009KT P6SM VCSH SCT015 BKN030
     FM260800 24006KT P6SM FEW015 SCT030
     FM261500 23011KT P6SM FEW030 SCT250=

USA.gov is the U.S. government's official web portal to all federal, state and local government web resources and services.